createdAt,value
2022-10-28T00:01:12.782Z,91.30
2022-10-28T00:03:57.675Z,91.40
2022-10-28T00:06:34.000Z,91.40
2022-10-28T00:09:01.374Z,91.40
2022-10-28T00:11:31.673Z,91.50
2022-10-28T00:14:00.456Z,91.60
2022-10-28T00:16:29.871Z,91.70
2022-10-28T00:18:59.331Z,91.70
2022-10-28T00:21:29.564Z,91.70
2022-10-28T00:23:56.937Z,91.70
2022-10-28T00:26:27.184Z,91.70
2022-10-28T00:28:57.127Z,91.80
2022-10-28T00:31:25.783Z,91.90
2022-10-28T00:33:53.553Z,91.90
2022-10-28T00:36:32.769Z,91.90
2022-10-28T00:39:00.736Z,91.90
2022-10-28T00:41:34.612Z,92.00
2022-10-28T00:44:39.041Z,92.00
2022-10-28T00:47:32.584Z,92.20
2022-10-28T00:50:23.029Z,92.20
2022-10-28T00:52:56.813Z,92.20
2022-10-28T00:55:24.657Z,92.30
2022-10-28T00:57:56.725Z,92.30
2022-10-28T01:00:26.061Z,92.40
2022-10-28T01:02:53.060Z,92.40
2022-10-28T01:05:29.972Z,92.40
2022-10-28T01:08:00.514Z,92.40
2022-10-28T01:10:39.835Z,92.50
2022-10-28T01:13:38.084Z,92.60
2022-10-28T01:16:29.090Z,92.70
2022-10-28T01:19:09.962Z,92.60
2022-10-28T01:22:01.684Z,92.70
2022-10-28T01:24:50.031Z,92.70
2022-10-28T01:27:22.550Z,92.70
2022-10-28T01:30:11.473Z,92.70
2022-10-28T01:32:52.479Z,92.70
2022-10-28T01:35:38.251Z,92.70
2022-10-28T01:38:23.343Z,92.70
2022-10-28T01:41:12.957Z,92.60
2022-10-28T01:43:57.932Z,92.60
2022-10-28T01:46:41.797Z,92.60
2022-10-28T01:49:32.067Z,92.60
2022-10-28T01:52:03.883Z,92.60
2022-10-28T01:54:34.119Z,92.70
2022-10-28T01:57:03.962Z,92.70
2022-10-28T01:59:33.077Z,92.80
2022-10-28T02:02:00.214Z,92.80
2022-10-28T02:04:27.336Z,92.80
2022-10-28T02:06:56.916Z,92.80
2022-10-28T02:09:39.177Z,92.80
2022-10-28T02:12:27.027Z,92.80
2022-10-28T02:15:48.431Z,93.00
2022-10-28T02:18:24.058Z,93.00
2022-10-28T02:20:58.588Z,93.10
2022-10-28T02:23:43.510Z,93.10
2022-10-28T02:26:31.679Z,93.00
2022-10-28T02:29:28.180Z,92.90
2022-10-28T02:32:20.000Z,92.70
2022-10-28T02:34:51.052Z,92.70
2022-10-28T02:37:26.811Z,92.80
2022-10-28T02:40:06.935Z,92.80
2022-10-28T02:42:37.899Z,92.90
2022-10-28T02:45:28.720Z,92.90
2022-10-28T02:48:00.520Z,93.00
2022-10-28T02:50:34.660Z,93.10
2022-10-28T02:53:05.756Z,93.10
2022-10-28T02:55:38.711Z,93.00
2022-10-28T02:58:06.515Z,93.10
2022-10-28T03:00:33.459Z,93.10
2022-10-28T03:03:00.584Z,93.10
2022-10-28T03:05:27.529Z,93.00
2022-10-28T03:07:54.854Z,93.00
2022-10-28T03:10:22.017Z,93.00
2022-10-28T03:12:48.972Z,93.00
2022-10-28T03:15:15.987Z,93.00
2022-10-28T03:17:42.946Z,93.00
2022-10-28T03:20:10.667Z,93.00
2022-10-28T03:22:37.614Z,93.00
2022-10-28T03:25:04.854Z,93.00
2022-10-28T03:27:31.787Z,92.90
2022-10-28T03:29:58.759Z,92.90
2022-10-28T03:32:25.741Z,92.90
2022-10-28T03:34:52.678Z,92.80
2022-10-28T03:37:19.704Z,92.80
2022-10-28T03:39:46.615Z,92.80
2022-10-28T03:42:13.572Z,92.80
2022-10-28T03:44:40.513Z,93.10
2022-10-28T03:47:07.537Z,92.80
2022-10-28T03:49:34.439Z,92.80
2022-10-28T03:52:01.510Z,92.70
2022-10-28T03:54:28.424Z,92.70
2022-10-28T03:56:55.382Z,92.80
2022-10-28T03:59:22.944Z,92.80
2022-10-28T04:01:50.043Z,92.80
2022-10-28T04:04:17.179Z,92.90
2022-10-28T04:06:44.204Z,92.90
2022-10-28T04:09:11.114Z,92.90
2022-10-28T04:11:38.060Z,92.90
2022-10-28T04:14:05.079Z,92.80
2022-10-28T04:16:32.046Z,92.80
2022-10-28T04:18:59.052Z,92.80
2022-10-28T04:21:26.002Z,92.80
2022-10-28T04:23:52.959Z,92.80
2022-10-28T04:26:19.892Z,92.80
2022-10-28T04:28:46.885Z,92.80
2022-10-28T04:31:13.865Z,92.90
2022-10-28T04:33:41.012Z,93.10
2022-10-28T04:36:08.176Z,92.80
2022-10-28T04:38:35.168Z,92.80
2022-10-28T04:41:02.400Z,92.80
2022-10-28T04:43:29.367Z,92.90
2022-10-28T04:45:56.322Z,92.80
2022-10-28T04:48:23.288Z,92.80
2022-10-28T04:50:50.999Z,92.80
2022-10-28T04:53:17.970Z,92.80
2022-10-28T04:55:45.412Z,92.70
2022-10-28T04:58:12.371Z,92.70
2022-10-28T05:00:39.376Z,92.70
2022-10-28T05:03:06.636Z,92.80
2022-10-28T05:05:33.820Z,92.80
2022-10-28T05:08:00.855Z,92.80
2022-10-28T05:10:27.877Z,92.80
2022-10-28T05:12:54.893Z,92.80
2022-10-28T05:15:21.886Z,92.80
2022-10-28T05:17:49.041Z,92.90
2022-10-28T05:20:18.037Z,93.00
2022-10-28T05:22:50.394Z,93.10
2022-10-28T05:25:18.528Z,93.10
2022-10-28T05:27:45.843Z,93.20
2022-10-28T05:30:13.865Z,93.20
2022-10-28T05:32:40.979Z,93.20
2022-10-28T05:35:08.585Z,93.20
2022-10-28T05:37:35.740Z,93.20
2022-10-28T05:40:03.223Z,93.20
2022-10-28T05:42:30.302Z,93.20
2022-10-28T05:44:57.309Z,93.30
2022-10-28T05:47:24.403Z,93.40
2022-10-28T05:49:51.470Z,93.40
2022-10-28T05:52:18.418Z,93.40
2022-10-28T05:54:45.388Z,93.50
2022-10-28T05:57:12.417Z,93.50
2022-10-28T05:59:39.354Z,93.60
2022-10-28T06:02:06.449Z,93.60
2022-10-28T06:04:33.548Z,93.70
2022-10-28T06:07:00.551Z,93.60
2022-10-28T06:09:28.795Z,93.60
2022-10-28T06:11:54.298Z,93.50
2022-10-28T06:14:21.269Z,93.50
2022-10-28T06:16:48.254Z,93.40
2022-10-28T06:19:15.343Z,93.40
2022-10-28T06:21:42.490Z,93.40
2022-10-28T06:24:12.105Z,93.40
2022-10-28T06:26:39.826Z,93.40
2022-10-28T06:29:09.702Z,93.40
2022-10-28T06:31:42.975Z,93.40
2022-10-28T06:34:10.524Z,93.40
2022-10-28T06:36:38.257Z,93.40
2022-10-28T06:39:05.751Z,93.30
2022-10-28T06:41:33.467Z,93.30
2022-10-28T06:44:00.584Z,93.30
2022-10-28T06:46:27.797Z,93.30
2022-10-28T06:48:56.658Z,93.30
2022-10-28T06:51:24.065Z,93.10
2022-10-28T06:53:51.687Z,92.70
2022-10-28T06:56:19.140Z,92.40
2022-10-28T06:58:54.125Z,92.00
2022-10-28T07:01:22.046Z,91.70
2022-10-28T07:03:49.457Z,91.30
2022-10-28T07:06:17.366Z,90.80
2022-10-28T07:08:46.866Z,90.20
2022-10-28T07:11:14.297Z,89.40
2022-10-28T07:13:42.534Z,88.50
2022-10-28T07:16:11.253Z,87.60
2022-10-28T07:18:38.233Z,87.00
2022-10-28T07:21:05.363Z,86.50
2022-10-28T07:23:32.980Z,86.00
2022-10-28T07:26:00.460Z,85.80
2022-10-28T07:28:28.120Z,85.80
2022-10-28T07:30:55.104Z,86.00
2022-10-28T07:33:22.124Z,86.30
2022-10-28T07:35:49.153Z,86.80
2022-10-28T07:38:16.396Z,87.30
2022-10-28T07:40:43.534Z,87.70
2022-10-28T07:43:10.642Z,88.10
2022-10-28T07:45:38.459Z,88.60
2022-10-28T07:48:06.211Z,89.00
2022-10-28T07:50:33.293Z,89.10
2022-10-28T07:53:00.631Z,89.00
2022-10-28T07:55:28.062Z,89.20
2022-10-28T07:57:55.399Z,89.20
2022-10-28T08:00:22.766Z,89.90
2022-10-28T08:02:49.750Z,89.00
2022-10-28T08:05:16.768Z,88.90
2022-10-28T08:07:43.738Z,88.70
2022-10-28T08:10:10.680Z,88.20
2022-10-28T08:12:37.727Z,88.20
2022-10-28T08:15:05.707Z,87.90
2022-10-28T08:17:32.677Z,87.80
2022-10-28T08:19:59.643Z,87.50
2022-10-28T08:22:26.621Z,87.00
2022-10-28T08:24:53.537Z,86.70
2022-10-28T08:27:20.484Z,86.40
2022-10-28T08:29:47.413Z,86.30
2022-10-28T08:32:14.350Z,86.10
2022-10-28T08:34:43.668Z,85.90
2022-10-28T08:37:11.217Z,85.50
2022-10-28T08:39:38.296Z,85.20
2022-10-28T08:42:29.183Z,84.90
2022-10-28T08:45:15.788Z,83.90
2022-10-28T08:47:55.515Z,83.00
2022-10-28T08:50:26.817Z,81.90
2022-10-28T08:52:59.237Z,81.90
2022-10-28T08:55:28.373Z,80.80
2022-10-28T08:58:09.253Z,80.30
2022-10-28T09:00:37.360Z,79.70
2022-10-28T09:03:22.368Z,79.20
2022-10-28T09:05:54.699Z,78.10
2022-10-28T09:08:24.500Z,77.90
2022-10-28T09:10:57.630Z,76.70
2022-10-28T09:13:43.621Z,76.50
2022-10-28T09:16:15.293Z,76.50
2022-10-28T09:18:54.972Z,74.80
2022-10-28T09:21:27.797Z,74.50
2022-10-28T09:23:57.467Z,75.30
2022-10-28T09:26:58.148Z,75.30
2022-10-28T09:29:39.209Z,74.60
2022-10-28T09:32:23.487Z,73.90
2022-10-28T09:34:58.063Z,73.60
2022-10-28T09:37:29.234Z,74.30
2022-10-28T09:40:01.280Z,74.60
2022-10-28T09:42:52.987Z,74.70
2022-10-28T09:45:30.984Z,74.90
2022-10-28T09:48:09.372Z,75.40
2022-10-28T09:50:36.328Z,75.70
2022-10-28T09:53:31.462Z,75.90
2022-10-28T09:56:03.748Z,76.80
2022-10-28T09:58:33.701Z,76.80
2022-10-28T10:01:01.806Z,77.10
2022-10-28T10:03:28.962Z,77.30
2022-10-28T10:05:59.410Z,77.20
2022-10-28T10:08:26.657Z,76.90
2022-10-28T10:11:04.308Z,76.90
2022-10-28T10:13:41.050Z,76.70
2022-10-28T10:16:20.100Z,76.60
2022-10-28T10:18:51.709Z,76.40
2022-10-28T10:21:46.072Z,75.80
2022-10-28T10:24:33.926Z,75.50
2022-10-28T10:27:10.098Z,75.20
2022-10-28T10:29:43.540Z,75.00
2022-10-28T10:32:36.506Z,75.20
2022-10-28T10:35:23.978Z,74.70
2022-10-28T10:37:52.242Z,74.50
2022-10-28T10:40:27.940Z,74.50
2022-10-28T10:43:12.886Z,74.00
2022-10-28T10:45:41.986Z,72.50
2022-10-28T10:48:16.225Z,73.00
2022-10-28T10:50:45.939Z,72.70
2022-10-28T10:53:39.914Z,71.00
2022-10-28T10:56:10.783Z,70.00
2022-10-28T10:58:51.655Z,70.00
2022-10-28T11:01:25.558Z,69.90
2022-10-28T11:03:59.985Z,69.00
2022-10-28T11:06:30.413Z,66.30
2022-10-28T11:09:05.965Z,66.40
2022-10-28T11:11:38.800Z,66.50
2022-10-28T11:14:27.920Z,66.40
2022-10-28T11:16:57.501Z,65.50
2022-10-28T11:19:32.036Z,64.80
2022-10-28T11:22:02.003Z,65.50
2022-10-28T11:24:43.173Z,64.80
2022-10-28T11:27:13.273Z,64.50
2022-10-28T11:29:41.097Z,65.00
2022-10-28T11:32:13.338Z,64.90
2022-10-28T11:35:18.043Z,63.40
2022-10-28T11:38:11.469Z,63.80
2022-10-28T11:41:12.394Z,64.20
2022-10-28T11:43:48.635Z,64.10
2022-10-28T11:46:32.056Z,63.30
2022-10-28T11:49:46.453Z,64.00
2022-10-28T11:52:28.646Z,64.30
2022-10-28T11:55:04.297Z,64.40
2022-10-28T11:57:56.056Z,64.70
2022-10-28T12:00:44.732Z,64.00
2022-10-28T12:03:45.700Z,63.50
2022-10-28T12:06:17.075Z,63.30
2022-10-28T12:09:04.988Z,63.00
2022-10-28T12:12:05.959Z,63.50
2022-10-28T12:14:40.024Z,63.90
2022-10-28T12:17:38.443Z,63.70
2022-10-28T12:20:18.394Z,63.20
2022-10-28T12:22:50.943Z,63.10
2022-10-28T12:25:24.113Z,62.60
2022-10-28T12:27:55.906Z,62.30
2022-10-28T12:30:29.306Z,63.00
2022-10-28T12:33:27.841Z,63.30
2022-10-28T12:36:18.161Z,64.00
2022-10-28T12:38:54.005Z,63.80
2022-10-28T12:41:26.425Z,63.60
2022-10-28T12:44:03.309Z,63.30
2022-10-28T12:47:05.020Z,62.70
2022-10-28T12:49:51.011Z,62.00
2022-10-28T12:52:36.449Z,61.70
2022-10-28T12:55:18.568Z,62.10
2022-10-28T12:57:52.546Z,62.00
2022-10-28T13:00:29.573Z,61.40
2022-10-28T13:03:09.005Z,60.60
2022-10-28T13:05:45.301Z,61.00
2022-10-28T13:08:27.268Z,61.50
2022-10-28T13:11:21.434Z,60.90
2022-10-28T13:14:07.377Z,60.90
2022-10-28T13:16:42.994Z,61.10
2022-10-28T13:19:42.973Z,61.60
2022-10-28T13:25:28.456Z,62.00
2022-10-28T13:28:00.105Z,62.30
2022-10-28T13:30:28.974Z,62.60
2022-10-28T13:33:07.533Z,62.90
2022-10-28T13:35:35.898Z,62.90
2022-10-28T13:38:09.623Z,63.00
2022-10-28T13:40:36.529Z,63.10
2022-10-28T13:43:03.597Z,62.40
2022-10-28T13:45:52.159Z,61.60
2022-10-28T13:48:43.313Z,61.60
2022-10-28T13:51:10.611Z,61.60
2022-10-28T13:53:46.624Z,61.80
2022-10-28T13:56:38.636Z,62.20
2022-10-28T13:59:16.096Z,61.50
2022-10-28T14:02:07.500Z,61.70
2022-10-28T14:04:42.396Z,62.20
2022-10-28T14:07:12.716Z,61.80
2022-10-28T14:09:41.533Z,62.10
2022-10-28T14:12:20.525Z,62.20
2022-10-28T14:14:57.355Z,62.30
2022-10-28T14:17:49.774Z,62.10
2022-10-28T14:20:25.492Z,62.10
2022-10-28T14:22:54.289Z,62.40
2022-10-28T14:25:43.611Z,62.60
2022-10-28T14:28:31.223Z,63.20
2022-10-28T14:31:11.495Z,63.70
2022-10-28T14:33:38.505Z,63.90
2022-10-28T14:36:17.754Z,63.80
2022-10-28T14:38:56.669Z,63.10
2022-10-28T14:41:42.144Z,63.20
2022-10-28T14:44:47.681Z,63.80
2022-10-28T14:47:20.752Z,64.30
2022-10-28T14:50:03.929Z,64.70
2022-10-28T14:52:35.174Z,65.20
2022-10-28T14:55:05.476Z,65.40
2022-10-28T14:57:34.570Z,65.70
2022-10-28T15:00:16.279Z,65.90
2022-10-28T15:02:43.321Z,65.90
2022-10-28T15:05:25.823Z,65.90
2022-10-28T15:07:53.879Z,66.10
2022-10-28T15:10:29.661Z,66.30
2022-10-28T15:12:58.425Z,66.50
2022-10-28T15:15:27.960Z,66.60
2022-10-28T15:17:55.473Z,66.90
2022-10-28T15:20:25.950Z,67.20
2022-10-28T15:22:54.281Z,67.80
2022-10-28T15:25:22.568Z,68.00
2022-10-28T15:27:53.574Z,68.20
2022-10-28T15:30:23.822Z,68.30
2022-10-28T15:32:52.271Z,68.40
2022-10-28T15:35:46.556Z,68.50
2022-10-28T15:38:34.816Z,68.60
2022-10-28T15:41:01.836Z,68.90
2022-10-28T15:43:30.876Z,69.70
2022-10-28T15:46:18.195Z,69.30
2022-10-28T15:48:45.266Z,69.50
2022-10-28T15:51:17.757Z,69.50
2022-10-28T15:53:46.238Z,69.60
2022-10-28T15:56:26.701Z,69.80
2022-10-28T15:59:07.395Z,70.10
2022-10-28T16:01:41.193Z,70.20
2022-10-28T16:04:23.597Z,70.30
2022-10-28T16:06:53.720Z,70.60
2022-10-28T16:09:29.222Z,70.80
2022-10-28T16:11:58.423Z,71.00
2022-10-28T16:14:42.816Z,71.20
2022-10-28T16:17:23.825Z,71.50
2022-10-28T16:19:50.799Z,71.80
2022-10-28T16:22:18.522Z,71.90
2022-10-28T16:24:46.054Z,72.20
2022-10-28T16:27:20.066Z,72.40
2022-10-28T16:29:47.541Z,72.70
2022-10-28T16:32:16.396Z,73.00
2022-10-28T16:34:43.592Z,73.20
2022-10-28T16:37:20.382Z,73.50
2022-10-28T16:39:47.450Z,73.80
2022-10-28T16:42:15.316Z,73.90
2022-10-28T16:44:42.579Z,74.20
2022-10-28T16:47:21.220Z,74.50
2022-10-28T16:49:54.489Z,74.80
2022-10-28T16:52:31.337Z,74.90
2022-10-28T16:54:58.992Z,75.20
2022-10-28T16:57:26.511Z,75.30
2022-10-28T16:59:54.333Z,75.60
2022-10-28T17:02:32.432Z,75.80
2022-10-28T17:04:59.919Z,76.10
2022-10-28T17:07:28.747Z,76.30
2022-10-28T17:09:56.912Z,76.50
2022-10-28T17:12:26.481Z,76.70
2022-10-28T17:14:53.692Z,77.00
2022-10-28T17:17:20.702Z,77.20
2022-10-28T17:19:47.734Z,77.50
2022-10-28T17:22:14.764Z,77.80
2022-10-28T17:24:41.846Z,78.10
2022-10-28T17:27:08.817Z,78.40
2022-10-28T17:29:36.218Z,78.70
2022-10-28T17:32:03.472Z,79.20
2022-10-28T17:34:30.649Z,79.50
2022-10-28T17:36:57.848Z,79.80
2022-10-28T17:39:26.358Z,80.00
2022-10-28T17:41:54.124Z,80.00
2022-10-28T17:44:21.475Z,80.00
2022-10-28T17:46:49.185Z,80.10
2022-10-28T17:49:16.157Z,80.20
2022-10-28T17:51:43.450Z,80.40
2022-10-28T17:54:11.049Z,80.50
2022-10-28T17:56:39.330Z,80.70
2022-10-28T17:59:06.350Z,81.10
2022-10-28T18:01:34.693Z,81.40
2022-10-28T18:04:03.703Z,81.70
2022-10-28T18:06:30.699Z,82.10
2022-10-28T18:08:58.385Z,82.30
2022-10-28T18:11:27.519Z,82.40
2022-10-28T18:13:56.383Z,82.70
2022-10-28T18:16:27.665Z,82.90
2022-10-28T18:18:55.733Z,83.20
2022-10-28T18:21:24.672Z,83.50
2022-10-28T18:23:57.118Z,83.60
2022-10-28T18:26:24.094Z,83.90
2022-10-28T18:28:51.073Z,83.60
2022-10-28T18:31:20.056Z,83.40
2022-10-28T18:33:47.957Z,83.60
2022-10-28T18:36:23.612Z,83.80
2022-10-28T18:38:51.340Z,83.70
2022-10-28T18:41:24.883Z,83.60
2022-10-28T18:43:59.586Z,83.80
2022-10-28T18:46:28.002Z,84.10
2022-10-28T18:48:57.366Z,84.00
2022-10-28T18:51:24.767Z,83.90
2022-10-28T18:53:52.154Z,84.00
2022-10-28T18:56:20.970Z,84.00
2022-10-28T18:58:52.330Z,84.20
2022-10-28T19:01:25.028Z,84.40
2022-10-28T19:03:54.164Z,84.50
2022-10-28T19:06:22.074Z,84.50
2022-10-28T19:08:57.327Z,84.40
2022-10-28T19:11:29.885Z,84.40
2022-10-28T19:14:01.488Z,84.50
2022-10-28T19:16:30.526Z,84.60
2022-10-28T19:18:59.158Z,84.80
2022-10-28T19:21:27.702Z,85.20
2022-10-28T19:23:55.363Z,85.70
2022-10-28T19:26:23.126Z,86.00
2022-10-28T19:28:50.977Z,86.30
2022-10-28T19:31:20.550Z,86.60
2022-10-28T19:33:47.667Z,86.80
2022-10-28T19:36:22.053Z,86.90
2022-10-28T19:38:50.787Z,87.10
2022-10-28T19:41:19.908Z,87.00
2022-10-28T19:43:47.608Z,87.00
2022-10-28T19:46:16.846Z,87.00
2022-10-28T19:48:46.991Z,87.10
2022-10-28T19:51:16.680Z,87.20
2022-10-28T19:53:55.750Z,87.10
2022-10-28T19:56:23.130Z,87.30
2022-10-28T19:59:08.703Z,87.20
2022-10-28T20:01:38.764Z,87.40
2022-10-28T20:04:07.146Z,87.60
2022-10-28T20:06:39.139Z,88.10
2022-10-28T20:09:06.627Z,88.10
2022-10-28T20:11:37.504Z,88.00
2022-10-28T20:14:13.468Z,87.90
2022-10-28T20:16:42.852Z,87.70
2022-10-28T20:19:10.424Z,87.60
2022-10-28T20:21:38.230Z,87.30
2022-10-28T20:24:07.783Z,87.20
2022-10-28T20:26:36.710Z,87.10
2022-10-28T20:29:03.776Z,86.60
2022-10-28T20:31:32.448Z,86.10
2022-10-28T20:34:03.862Z,85.50
2022-10-28T20:36:44.002Z,85.60
2022-10-28T20:39:16.671Z,85.10
2022-10-28T20:41:45.602Z,85.50
2022-10-28T20:44:12.688Z,85.70
2022-10-28T20:46:39.960Z,85.90
2022-10-28T20:49:08.733Z,86.00
2022-10-28T20:51:36.611Z,86.10
2022-10-28T20:54:03.683Z,86.30
2022-10-28T20:56:34.887Z,86.70
2022-10-28T20:59:02.032Z,86.90
2022-10-28T21:01:34.459Z,86.90
2022-10-28T21:04:04.110Z,86.70
2022-10-28T21:06:32.065Z,86.50
2022-10-28T21:08:59.551Z,86.30
2022-10-28T21:11:28.059Z,86.50
2022-10-28T21:13:59.783Z,87.20
2022-10-28T21:16:28.550Z,87.50
2022-10-28T21:18:56.158Z,87.60
2022-10-28T21:21:24.301Z,87.60
2022-10-28T21:23:51.433Z,87.70
2022-10-28T21:26:18.603Z,87.70
2022-10-28T21:28:49.546Z,87.80
2022-10-28T21:31:18.151Z,87.90
2022-10-28T21:33:45.635Z,88.10
2022-10-28T21:36:14.923Z,88.20
2022-10-28T21:38:42.623Z,88.50
2022-10-28T21:41:18.202Z,88.60
2022-10-28T21:43:50.670Z,88.80
2022-10-28T21:46:19.110Z,88.70
2022-10-28T21:48:46.221Z,89.00
2022-10-28T21:51:15.656Z,89.20
2022-10-28T21:53:44.373Z,89.40
2022-10-28T21:56:17.594Z,89.40
2022-10-28T21:58:47.238Z,89.30
2022-10-28T22:01:17.814Z,89.20
2022-10-28T22:03:44.888Z,89.10
2022-10-28T22:06:11.892Z,89.00
2022-10-28T22:08:38.875Z,89.10
2022-10-28T22:11:08.658Z,89.00
2022-10-28T22:13:35.696Z,89.00
2022-10-28T22:16:10.660Z,89.10
2022-10-28T22:18:38.031Z,89.30
2022-10-28T22:21:13.845Z,89.30
2022-10-28T22:23:41.315Z,89.20
2022-10-28T22:26:11.394Z,88.90
2022-10-28T22:28:39.216Z,88.80
2022-10-28T22:31:08.375Z,88.90
2022-10-28T22:33:35.997Z,89.20
2022-10-28T22:36:08.938Z,89.30
2022-10-28T22:38:36.150Z,89.50
2022-10-28T22:41:05.469Z,89.70
2022-10-28T22:43:33.160Z,90.00
2022-10-28T22:46:01.285Z,90.20
2022-10-28T22:48:28.834Z,90.30
2022-10-28T22:50:55.903Z,90.30
2022-10-28T22:53:23.199Z,90.40
2022-10-28T22:55:52.337Z,90.30
2022-10-28T22:58:19.957Z,90.30
2022-10-28T23:00:47.160Z,90.30
2022-10-28T23:03:14.576Z,90.30
2022-10-28T23:05:41.633Z,90.30
2022-10-28T23:08:10.577Z,90.20
2022-10-28T23:10:37.517Z,90.10
2022-10-28T23:13:04.610Z,89.80
2022-10-28T23:15:31.662Z,89.60
2022-10-28T23:17:58.845Z,89.60
2022-10-28T23:20:26.045Z,89.90
2022-10-28T23:22:56.533Z,90.00
2022-10-28T23:25:23.582Z,90.00
2022-10-28T23:27:50.536Z,90.10
2022-10-28T23:30:17.584Z,90.20
2022-10-28T23:32:44.624Z,90.40
2022-10-28T23:35:11.537Z,90.40
2022-10-28T23:37:38.559Z,90.40
2022-10-28T23:40:06.047Z,90.60
2022-10-28T23:42:33.070Z,90.60
2022-10-28T23:45:00.002Z,90.50
2022-10-28T23:47:26.985Z,90.50
2022-10-28T23:49:54.003Z,90.60
2022-10-28T23:52:20.960Z,90.50
2022-10-28T23:54:47.907Z,90.50
2022-10-28T23:57:14.956Z,90.50
2022-10-28T23:59:41.885Z,90.50
